Time;durP1;ratioP1;P1;durP2;ratioP2;P2;SDS_P1;SDS_P2;PMS_P1;PMS_P2;Temp;Humidity;BMP_temperature;BMP_pressure;BME280_temperature;BME280_humidity;BME280_pressure;Samples;Min_cycle;Max_cycle;Signal;HPM_P1;HPM_P2
2024/01/07 00:01:52;;;;;;;4.00;2.60;;;;;;;4.75;100.00;96290.19;1224706;75;2922695;-70
2024/01/07 00:04:25;;;;;;;2.90;2.30;;;;;;;4.75;100.00;96289.44;1224481;75;2925636;-65
2024/01/07 00:06:58;;;;;;;2.65;1.95;;;;;;;4.80;100.00;96283.38;1223759;75;2928187;-67
2024/01/07 00:09:31;;;;;;;2.40;2.05;;;;;;;4.81;100.00;96282.13;1224372;75;2925774;-67
2024/01/07 00:12:07;;;;;;;2.55;2.00;;;;;;;4.72;100.00;96284.97;1224476;75;2920475;-70
2024/01/07 00:14:40;;;;;;;2.50;1.80;;;;;;;4.64;100.00;96273.75;1225240;75;2915628;-68
2024/01/07 00:17:13;;;;;;;3.25;2.70;;;;;;;4.53;100.00;96285.19;1224937;75;2913622;-67
2024/01/07 00:19:46;;;;;;;3.35;2.55;;;;;;;4.43;100.00;96278.38;1224695;75;2918930;-70
2024/01/07 00:22:19;;;;;;;4.05;2.60;;;;;;;4.62;100.00;96285.06;1224189;75;2922169;-67
2024/01/07 00:24:52;;;;;;;4.25;3.20;;;;;;;4.51;100.00;96271.34;1224628;75;2919757;-66
2024/01/07 00:27:27;;;;;;;3.85;2.95;;;;;;;4.47;100.00;96268.06;1224012;75;2917423;-67
2024/01/07 00:30:00;;;;;;;3.70;3.15;;;;;;;4.58;100.00;96265.53;1224742;75;2923799;-68
2024/01/07 00:32:33;;;;;;;3.45;2.45;;;;;;;4.65;100.00;96273.28;1225021;75;2917028;-67
2024/01/07 00:35:06;;;;;;;2.85;2.30;;;;;;;4.61;100.00;96261.88;1224191;75;2929852;-69
2024/01/07 00:37:39;;;;;;;2.90;2.20;;;;;;;4.64;100.00;96269.09;1225347;75;2917660;-66
2024/01/07 00:40:14;;;;;;;4.70;2.70;;;;;;;4.55;100.00;96266.50;1224513;75;2937087;-66
2024/01/07 00:42:49;;;;;;;2.65;2.10;;;;;;;4.60;100.00;96262.38;1224487;75;2924983;-67
2024/01/07 00:45:22;;;;;;;3.35;3.00;;;;;;;4.44;100.00;96261.63;1224911;75;2917388;-67
2024/01/07 00:47:55;;;;;;;3.50;2.50;;;;;;;4.37;100.00;96262.00;1224715;75;2923704;-67
2024/01/07 00:50:28;;;;;;;3.35;2.50;;;;;;;4.51;100.00;96260.50;1224986;75;2916082;-68
2024/01/07 00:53:00;;;;;;;3.60;2.55;;;;;;;4.42;100.00;96266.75;1223524;75;2918538;-66
2024/01/07 00:55:35;;;;;;;4.65;3.40;;;;;;;4.10;100.00;96265.75;1225349;75;2924114;-65
2024/01/07 00:58:10;;;;;;;4.90;3.50;;;;;;;4.26;100.00;96270.72;1224614;75;2923018;-67
2024/01/07 01:00:43;;;;;;;4.50;3.25;;;;;;;4.36;100.00;96276.03;1225192;75;2920117;-67
2024/01/07 01:03:16;;;;;;;4.75;3.00;;;;;;;4.30;100.00;96264.34;1225611;75;2891655;-68
2024/01/07 01:05:49;;;;;;;3.10;2.00;;;;;;;4.43;100.00;96267.53;1225128;75;2916840;-67
2024/01/07 01:08:23;;;;;;;6.05;2.45;;;;;;;4.32;100.00;96259.94;1224806;75;2922131;-68
2024/01/07 01:10:55;;;;;;;4.10;2.45;;;;;;;4.23;100.00;96263.53;1224358;75;2924770;-67
2024/01/07 01:13:31;;;;;;;3.65;2.30;;;;;;;4.35;100.00;96256.31;1224967;75;2913088;-68
2024/01/07 01:16:04;;;;;;;4.00;2.35;;;;;;;4.52;100.00;96263.97;1224960;75;2923682;-67
2024/01/07 01:18:37;;;;;;;2.50;1.70;;;;;;;4.47;100.00;96259.94;1225069;75;2919709;-68
2024/01/07 01:21:10;;;;;;;2.85;1.60;;;;;;;4.44;100.00;96264.34;1224760;75;2921435;-66
2024/01/07 01:23:43;;;;;;;2.35;1.95;;;;;;;4.46;100.00;96259.19;1225142;75;2932124;-67
2024/01/07 01:26:16;;;;;;;2.25;1.80;;;;;;;4.44;100.00;96256.22;1225205;75;2918342;-67
2024/01/07 01:28:52;;;;;;;2.30;1.70;;;;;;;4.16;100.00;96255.00;1224765;75;2919201;-68
2024/01/07 01:31:24;;;;;;;2.95;2.10;;;;;;;4.40;100.00;96252.19;1224892;75;2920437;-69
2024/01/07 01:33:57;;;;;;;2.70;2.00;;;;;;;4.36;100.00;96254.34;1224717;75;2913181;-69
2024/01/07 01:36:30;;;;;;;3.80;2.25;;;;;;;4.22;100.00;96253.16;1224554;75;2924662;-69
2024/01/07 01:39:03;;;;;;;3.90;2.85;;;;;;;4.33;100.00;96255.28;1224981;75;2918103;-68
2024/01/07 01:41:36;;;;;;;3.05;2.35;;;;;;;4.50;100.00;96250.91;1224413;75;2921676;-69
2024/01/07 01:44:13;;;;;;;3.45;2.05;;;;;;;4.25;100.00;96250.22;1224957;75;2923621;-67
2024/01/07 01:46:47;;;;;;;2.00;1.80;;;;;;;4.47;100.00;96243.69;1224527;75;2919894;-68
2024/01/07 01:49:21;;;;;;;3.45;2.45;;;;;;;4.19;100.00;96241.28;1224753;75;2919911;-68
2024/01/07 01:51:54;;;;;;;3.20;2.50;;;;;;;4.19;100.00;96252.13;1224524;75;2916933;-67
2024/01/07 01:54:27;;;;;;;3.95;2.50;;;;;;;4.45;100.00;96238.00;1224747;75;2914463;-67
2024/01/07 01:57:00;;;;;;;2.85;2.00;;;;;;;4.48;100.00;96239.78;1224729;75;2918194;-68
2024/01/07 01:59:37;;;;;;;2.10;1.65;;;;;;;4.49;100.00;96233.13;1224333;75;2920024;-68
2024/01/07 02:02:10;;;;;;;3.15;2.15;;;;;;;4.07;100.00;96236.91;1224323;75;2916608;-66
2024/01/07 02:04:42;;;;;;;2.35;1.95;;;;;;;4.39;100.00;96234.44;1224309;75;2940872;-72
2024/01/07 02:07:15;;;;;;;2.05;1.40;;;;;;;4.48;100.00;96239.78;1224244;75;2936381;-67
2024/01/07 02:09:48;;;;;;;1.55;1.45;;;;;;;4.47;100.00;96239.03;1224413;75;2918198;-67
2024/01/07 02:12:21;;;;;;;1.60;1.30;;;;;;;4.57;100.00;96238.91;1224209;75;2923106;-67
2024/01/07 02:14:56;;;;;;;1.55;1.10;;;;;;;4.36;100.00;96233.44;1225090;75;2921624;-67
2024/01/07 02:17:29;;;;;;;1.60;1.30;;;;;;;4.52;100.00;96240.31;1225018;75;2918452;-67
2024/01/07 02:20:02;;;;;;;1.40;1.20;;;;;;;4.62;100.00;96241.72;1224540;75;2915085;-67
2024/01/07 02:22:35;;;;;;;1.25;1.00;;;;;;;4.37;100.00;96236.88;1225032;75;2921889;-69
2024/01/07 02:25:12;;;;;;;1.20;0.90;;;;;;;4.50;100.00;96242.75;1224717;75;2924644;-68
2024/01/07 02:27:45;;;;;;;1.30;1.00;;;;;;;4.53;100.00;96241.06;1224718;75;2917091;-66
2024/01/07 02:30:17;;;;;;;1.40;1.30;;;;;;;4.46;100.00;96239.50;1225685;75;2918395;-65
2024/01/07 02:32:51;;;;;;;1.45;1.20;;;;;;;4.46;100.00;96242.19;1224871;75;2916784;-67
2024/01/07 02:35:24;;;;;;;2.75;1.60;;;;;;;4.29;100.00;96241.19;1224461;75;2918869;-67
2024/01/07 02:37:57;;;;;;;2.55;1.40;;;;;;;4.49;100.00;96235.84;1225232;75;2917113;-68
2024/01/07 02:40:32;;;;;;;2.55;1.60;;;;;;;4.36;100.00;96238.84;1224511;75;2915465;-67
2024/01/07 02:43:05;;;;;;;2.10;1.50;;;;;;;4.47;100.00;96240.97;1225564;75;2919033;-66
2024/01/07 02:45:38;;;;;;;2.55;1.50;;;;;;;4.54;100.00;96229.75;1225181;75;2930850;-67
2024/01/07 02:48:11;;;;;;;2.60;1.40;;;;;;;4.39;100.00;96229.78;1223950;75;2917466;-67
2024/01/07 02:50:44;;;;;;;2.95;2.10;;;;;;;4.44;100.00;96229.09;1224663;75;2928048;-68
2024/01/07 02:53:17;;;;;;;2.75;2.10;;;;;;;4.30;100.00;96237.25;1225852;75;2916200;-67
2024/01/07 02:55:52;;;;;;;2.60;2.10;;;;;;;4.34;100.00;96227.72;1225052;75;2917512;-67
2024/01/07 02:58:25;;;;;;;2.90;2.30;;;;;;;4.33;100.00;96230.91;1225277;75;2921847;-68
2024/01/07 03:00:58;;;;;;;2.80;2.50;;;;;;;4.47;100.00;96230.13;1225360;75;2914939;-67
2024/01/07 03:03:30;;;;;;;3.40;2.30;;;;;;;4.49;100.00;96230.41;1225116;75;2916396;-67
2024/01/07 03:06:03;;;;;;;3.20;2.70;;;;;;;4.19;100.00;96227.75;1224990;75;2918989;-67
2024/01/07 03:08:36;;;;;;;3.10;2.50;;;;;;;4.41;100.00;96230.06;1225013;75;2928558;-69
2024/01/07 03:11:12;;;;;;;3.50;2.90;;;;;;;4.36;100.00;96219.88;1225135;75;2919081;-68
2024/01/07 03:13:45;;;;;;;3.65;2.70;;;;;;;4.29;100.00;96224.94;1224173;75;2924877;-67
2024/01/07 03:16:24;;;;;;;3.35;2.20;;;;;;;4.39;100.00;96218.94;1224171;75;2920841;-67
2024/01/07 03:18:56;;;;;;;2.70;2.20;;;;;;;4.43;100.00;96226.88;1225114;75;2920205;-66
2024/01/07 03:21:29;;;;;;;2.60;2.10;;;;;;;4.39;100.00;96231.75;1224266;75;2920952;-70
2024/01/07 03:24:02;;;;;;;3.00;2.30;;;;;;;4.34;100.00;96235.84;1224291;75;2933067;-66
2024/01/07 03:26:38;;;;;;;3.70;2.40;;;;;;;4.42;100.00;96238.94;1223557;75;2924494;-67
2024/01/07 03:29:10;;;;;;;3.65;2.65;;;;;;;4.24;100.00;96234.47;1224637;75;2918285;-68
2024/01/07 03:31:43;;;;;;;2.95;2.25;;;;;;;4.30;100.00;96237.25;1224150;75;2917533;-67
2024/01/07 03:34:16;;;;;;;3.75;2.25;;;;;;;4.38;100.00;96232.97;1224872;75;2915032;-68
2024/01/07 03:36:49;;;;;;;2.70;2.00;;;;;;;4.53;100.00;96238.38;1224660;75;2917927;-67
2024/01/07 03:39:22;;;;;;;2.75;2.20;;;;;;;4.37;100.00;96239.59;1224688;75;2919761;-67
2024/01/07 03:42:01;;;;;;;5.05;2.50;;;;;;;4.16;100.00;96246.88;1224591;75;2918654;-67
2024/01/07 03:44:34;;;;;;;4.15;2.80;;;;;;;4.24;100.00;96245.31;1224397;75;2923521;-67
2024/01/07 03:47:07;;;;;;;3.95;3.05;;;;;;;4.34;100.00;96245.94;1225082;75;2922748;-67
2024/01/07 03:49:41;;;;;;;3.20;2.40;;;;;;;4.40;100.00;96242.13;1224309;75;2915076;-66
2024/01/07 03:52:13;;;;;;;3.00;2.20;;;;;;;4.48;100.00;96248.66;1223921;75;2918826;-68
2024/01/07 03:54:46;;;;;;;3.60;1.85;;;;;;;4.51;100.00;96246.94;1224907;75;2913619;-70
2024/01/07 03:57:22;;;;;;;1.85;1.65;;;;;;;4.63;100.00;96254.03;1224422;75;2914432;-68
2024/01/07 03:59:54;;;;;;;2.00;1.60;;;;;;;4.60;100.00;96260.41;1223864;75;2921570;-69
2024/01/07 04:02:28;;;;;;;2.25;1.75;;;;;;;4.63;100.00;96259.47;1225211;75;2914292;-67
2024/01/07 04:05:00;;;;;;;2.35;1.60;;;;;;;4.66;100.00;96260.47;1224489;75;2923548;-69
2024/01/07 04:07:34;;;;;;;2.30;1.90;;;;;;;4.58;100.00;96252.00;1224783;75;2920651;-67
2024/01/07 04:10:07;;;;;;;2.10;1.75;;;;;;;4.62;100.00;96259.94;1225412;75;2914563;-69
2024/01/07 04:12:43;;;;;;;2.70;1.90;;;;;;;4.62;100.00;96266.09;1225151;75;2919936;-66
2024/01/07 04:15:16;;;;;;;2.80;2.35;;;;;;;4.53;100.00;96257.34;1224701;75;2920548;-69
2024/01/07 04:17:48;;;;;;;2.45;2.10;;;;;;;4.59;100.00;96263.56;1224652;75;2921994;-68
2024/01/07 04:20:21;;;;;;;2.75;2.25;;;;;;;4.58;100.00;96270.22;1224335;75;2922609;-66
2024/01/07 04:22:54;;;;;;;3.05;2.50;;;;;;;4.54;100.00;96269.66;1224717;75;2936458;-66
2024/01/07 04:25:27;;;;;;;2.25;2.05;;;;;;;4.54;100.00;96275.06;1225570;75;2916559;-67
2024/01/07 04:28:03;;;;;;;2.50;2.10;;;;;;;4.54;100.00;96273.09;1225223;75;2923548;-66
2024/01/07 04:30:35;;;;;;;1.95;1.70;;;;;;;4.63;100.00;96277.69;1224202;75;2927949;-67
2024/01/07 04:33:08;;;;;;;2.40;1.80;;;;;;;4.67;100.00;96278.25;1224778;75;2923937;-67
2024/01/07 04:35:41;;;;;;;2.35;2.15;;;;;;;4.52;100.00;96288.34;1224924;75;2926486;-67
2024/01/07 04:38:14;;;;;;;3.25;2.55;;;;;;;4.57;100.00;96288.44;1224664;75;2924032;-69
2024/01/07 04:40:47;;;;;;;2.90;2.40;;;;;;;4.40;100.00;96287.41;1226078;75;2918293;-70
2024/01/07 04:43:22;;;;;;;3.30;2.45;;;;;;;4.49;100.00;96293.47;1224227;75;2917822;-67
2024/01/07 04:45:55;;;;;;;3.85;2.95;;;;;;;4.43;100.00;96295.38;1225152;75;2921198;-67
2024/01/07 04:48:28;;;;;;;4.10;3.45;;;;;;;4.31;100.00;96296.41;1224805;75;2914884;-66
2024/01/07 04:51:01;;;;;;;3.85;3.00;;;;;;;4.36;100.00;96297.72;1224728;75;2923275;-66
2024/01/07 04:53:33;;;;;;;4.80;2.65;;;;;;;4.39;100.00;96300.22;1224806;75;2918896;-69
2024/01/07 04:56:07;;;;;;;3.50;2.80;;;;;;;4.27;100.00;96312.81;1225058;75;2927344;-68
2024/01/07 04:58:43;;;;;;;4.35;3.20;;;;;;;4.44;100.00;96306.94;1224997;75;2933071;-67
2024/01/07 05:01:16;;;;;;;4.25;3.85;;;;;;;4.05;100.00;96309.72;1225572;75;2927977;-69
2024/01/07 05:03:49;;;;;;;4.00;3.20;;;;;;;4.34;100.00;96303.59;1225625;75;2913195;-67
2024/01/07 05:06:22;;;;;;;4.05;2.75;;;;;;;4.40;100.00;96306.38;1225205;75;2927974;-66
2024/01/07 05:08:54;;;;;;;5.10;2.85;;;;;;;4.33;100.00;96314.88;1223542;75;2941457;-70
2024/01/07 05:11:27;;;;;;;4.60;2.65;;;;;;;4.39;100.00;96313.03;1224949;75;2917566;-68
2024/01/07 05:14:03;;;;;;;3.75;2.35;;;;;;;4.33;100.00;96314.88;1225446;75;2921308;-65
2024/01/07 05:16:36;;;;;;;2.40;1.90;;;;;;;4.36;100.00;96312.00;1224781;75;2922180;-69
2024/01/07 05:19:08;;;;;;;3.35;2.15;;;;;;;4.35;100.00;96312.44;1225184;75;2917991;-67
2024/01/07 05:21:41;;;;;;;1.95;1.60;;;;;;;4.48;100.00;96321.06;1224116;75;2926472;-69
2024/01/07 05:24:14;;;;;;;2.60;1.90;;;;;;;4.17;100.00;96322.25;1225349;75;2919009;-70
2024/01/07 05:26:48;;;;;;;1.75;1.45;;;;;;;4.22;100.00;96323.56;1224814;75;2920348;-67
2024/01/07 05:29:23;;;;;;;0.95;0.80;;;;;;;4.14;100.00;96317.03;1225364;75;2918766;-70
2024/01/07 05:31:56;;;;;;;0.70;0.70;;;;;;;4.19;100.00;96325.25;1224801;75;2924278;-67
2024/01/07 05:34:29;;;;;;;1.30;0.90;;;;;;;4.25;100.00;96326.09;1224746;75;2927670;-67
2024/01/07 05:37:02;;;;;;;0.70;0.70;;;;;;;4.28;100.00;96321.69;1224253;75;2922194;-68
2024/01/07 05:39:35;;;;;;;0.80;0.65;;;;;;;4.47;100.00;96331.16;1224780;75;2923023;-67
2024/01/07 05:42:08;;;;;;;0.70;0.70;;;;;;;4.41;100.00;96324.88;1225344;75;2922502;-68
2024/01/07 05:44:43;;;;;;;1.45;0.90;;;;;;;4.33;100.00;96333.84;1225142;75;2920086;-68
2024/01/07 05:47:16;;;;;;;2.75;0.80;;;;;;;4.39;100.00;96330.03;1225303;75;2915587;-69
2024/01/07 05:49:51;;;;;;;1.20;0.70;;;;;;;4.46;100.00;96328.91;1224677;75;2921863;-67
2024/01/07 05:52:24;;;;;;;0.95;0.85;;;;;;;4.51;100.00;96330.97;1224061;75;2920798;-68
2024/01/07 05:54:57;;;;;;;0.95;0.85;;;;;;;4.45;100.00;96332.84;1224970;75;2924339;-70
2024/01/07 05:57:30;;;;;;;1.10;1.00;;;;;;;4.44;100.00;96337.50;1225115;75;2921179;-66
2024/01/07 06:00:06;;;;;;;1.05;0.95;;;;;;;4.33;100.00;96331.13;1224905;75;2923021;-67
2024/01/07 06:02:39;;;;;;;1.35;1.10;;;;;;;4.51;100.00;96335.63;1223550;75;2927465;-68
2024/01/07 06:05:12;;;;;;;1.85;1.25;;;;;;;4.44;100.00;96342.16;1225267;75;2925168;-68
2024/01/07 06:07:45;;;;;;;1.10;1.00;;;;;;;4.54;100.00;96340.84;1224923;75;2920813;-67
2024/01/07 06:10:18;;;;;;;1.75;1.30;;;;;;;4.48;100.00;96338.06;1225002;75;2931012;-69
2024/01/07 06:12:54;;;;;;;1.30;1.20;;;;;;;4.34;100.00;96348.91;1221169;75;3043988;-67
2024/01/07 06:15:29;;;;;;;1.90;1.60;;;;;;;4.20;100.00;96336.81;1225039;75;2921595;-67
2024/01/07 06:18:02;;;;;;;1.65;1.40;;;;;;;4.04;100.00;96340.72;1225520;75;2918087;-67
2024/01/07 06:20:35;;;;;;;1.15;1.05;;;;;;;4.02;100.00;96343.91;1223627;75;2924385;-65
2024/01/07 06:23:08;;;;;;;1.00;0.90;;;;;;;3.97;100.00;96351.91;1224332;75;2921402;-67
2024/01/07 06:25:41;;;;;;;1.10;0.80;;;;;;;3.98;100.00;96348.72;1224089;75;2916794;-67
2024/01/07 06:28:14;;;;;;;1.00;0.90;;;;;;;4.20;100.00;96344.94;1224229;75;2915149;-68
2024/01/07 06:30:50;;;;;;;1.00;0.90;;;;;;;4.11;100.00;96353.88;1225354;75;2915778;-68
2024/01/07 06:33:23;;;;;;;0.80;0.80;;;;;;;4.24;100.00;96351.69;1225670;75;2920174;-67
2024/01/07 06:35:55;;;;;;;1.00;0.90;;;;;;;3.98;100.00;96359.56;1225121;75;2920782;-67
2024/01/07 06:38:28;;;;;;;1.05;0.80;;;;;;;3.97;100.00;96362.72;1224482;75;2933418;-67
2024/01/07 06:41:03;;;;;;;0.75;0.70;;;;;;;4.01;100.00;96368.72;1224305;75;2920638;-67
2024/01/07 06:43:36;;;;;;;0.80;0.60;;;;;;;3.87;100.00;96361.31;1223306;75;2917437;-67
2024/01/07 06:46:12;;;;;;;1.25;0.80;;;;;;;3.92;100.00;96369.56;1225897;75;2920873;-67
2024/01/07 06:48:44;;;;;;;1.15;1.00;;;;;;;3.99;100.00;96363.00;1225723;75;2919025;-65
2024/01/07 06:51:19;;;;;;;1.00;0.90;;;;;;;3.96;100.00;96355.81;1225016;75;2929569;-66
2024/01/07 06:53:51;;;;;;;0.75;0.65;;;;;;;3.94;100.00;96361.69;1223491;75;2924628;-68
2024/01/07 06:56:24;;;;;;;0.75;0.75;;;;;;;3.83;100.00;96369.63;1223191;75;2926681;-67
2024/01/07 06:58:57;;;;;;;0.55;0.55;;;;;;;3.89;100.00;96375.13;1225417;75;2918511;-68
2024/01/07 07:01:32;;;;;;;0.60;0.60;;;;;;;3.87;100.00;96372.13;1224604;75;2917867;-67
2024/01/07 07:04:05;;;;;;;0.70;0.60;;;;;;;3.94;100.00;96366.38;1224974;75;2928075;-67
2024/01/07 07:06:38;;;;;;;0.60;0.60;;;;;;;3.88;100.00;96373.66;1223833;75;2922164;-66
2024/01/07 07:09:11;;;;;;;0.95;0.70;;;;;;;3.86;100.00;96374.09;1223304;75;2916873;-66
2024/01/07 07:11:44;;;;;;;0.90;0.70;;;;;;;3.83;100.00;96375.03;1224132;75;2876879;-64
2024/01/07 07:14:17;;;;;;;1.50;1.00;;;;;;;3.83;100.00;96380.44;1224299;75;2956597;-65
2024/01/07 07:16:52;;;;;;;1.10;1.00;;;;;;;3.98;100.00;96373.09;1222538;75;3069179;-66
2024/01/07 07:19:25;;;;;;;0.90;0.70;;;;;;;3.94;100.00;96382.63;1224351;75;2925767;-63
2024/01/07 07:21:58;;;;;;;2.65;1.90;;;;;;;3.89;100.00;96381.28;1225396;75;2922512;-65
2024/01/07 07:24:31;;;;;;;0.60;0.60;;;;;;;3.89;100.00;96388.66;1223788;75;2933551;-64
2024/01/07 07:27:04;;;;;;;2.40;1.60;;;;;;;4.09;100.00;96374.53;1224746;75;2914081;-63
2024/01/07 07:29:37;;;;;;;2.05;1.50;;;;;;;4.02;100.00;96381.06;1224820;75;2922989;-66
2024/01/07 07:32:13;;;;;;;1.80;1.40;;;;;;;4.04;100.00;96384.81;1224640;75;2932828;-66
2024/01/07 07:34:46;;;;;;;1.05;0.80;;;;;;;3.92;100.00;96396.63;1224355;75;2922944;-63
2024/01/07 07:37:19;;;;;;;5.10;3.00;;;;;;;3.92;100.00;96387.75;1223960;75;2919027;-63
2024/01/07 07:39:52;;;;;;;0.90;0.70;;;;;;;4.05;100.00;96390.97;1223815;75;2935417;-66
2024/01/07 07:42:25;;;;;;;0.70;0.60;;;;;;;4.09;100.00;96405.09;1223950;75;2924476;-65
2024/01/07 07:44:58;;;;;;;1.45;1.10;;;;;;;4.00;100.00;96397.75;1225743;75;2910629;-64
2024/01/07 07:47:34;;;;;;;2.45;1.75;;;;;;;4.19;100.00;96398.38;1225461;75;2918836;-64
2024/01/07 07:50:10;;;;;;;6.45;4.10;;;;;;;4.07;100.00;96404.06;1225396;75;2920040;-65
2024/01/07 07:52:44;;;;;;;4.25;2.45;;;;;;;4.08;100.00;96408.25;1223697;75;2921716;-64
2024/01/07 07:55:17;;;;;;;2.90;2.05;;;;;;;4.15;100.00;96413.31;1225372;75;2919062;-64
2024/01/07 07:57:51;;;;;;;4.55;3.15;;;;;;;4.38;100.00;96409.81;1224700;75;2918467;-65
2024/01/07 08:00:24;;;;;;;10.30;6.40;;;;;;;4.45;100.00;96417.59;1224039;75;2925284;-64
2024/01/07 08:03:00;;;;;;;6.85;5.00;;;;;;;4.42;100.00;96413.06;1224546;75;2928956;-65
2024/01/07 08:05:32;;;;;;;10.40;7.45;;;;;;;4.54;100.00;96411.31;1224843;75;2925624;-66
2024/01/07 08:08:05;;;;;;;8.40;5.90;;;;;;;4.72;100.00;96415.09;1224912;75;2916211;-65
2024/01/07 08:10:38;;;;;;;6.15;4.30;;;;;;;4.61;100.00;96415.63;1224735;75;2921279;-62
2024/01/07 08:13:11;;;;;;;4.00;2.65;;;;;;;4.68;100.00;96420.69;1224577;75;2926743;-65
2024/01/07 08:15:44;;;;;;;2.75;2.05;;;;;;;4.67;100.00;96419.19;1224626;75;2930595;-65
2024/01/07 08:18:19;;;;;;;2.25;1.50;;;;;;;4.74;100.00;96415.34;1225352;75;2922114;-66
2024/01/07 08:20:52;;;;;;;1.80;1.45;;;;;;;4.82;100.00;96424.63;1223921;75;2952967;-64
2024/01/07 08:23:25;;;;;;;1.40;1.05;;;;;;;4.89;100.00;96424.25;1225020;75;2920286;-66
2024/01/07 08:25:58;;;;;;;1.70;1.10;;;;;;;4.85;100.00;96423.69;1225360;75;2923635;-63
2024/01/07 08:28:31;;;;;;;0.70;0.70;;;;;;;4.97;100.00;96428.09;1224409;75;2923170;-64
2024/01/07 08:31:04;;;;;;;1.10;0.95;;;;;;;4.87;100.00;96423.97;1224592;75;2916833;-64
2024/01/07 08:33:39;;;;;;;1.60;1.50;;;;;;;4.96;100.00;96428.56;1225284;75;2925592;-64
2024/01/07 08:36:12;;;;;;;4.40;3.30;;;;;;;4.81;100.00;96434.72;1224786;75;2913289;-64
2024/01/07 08:38:46;;;;;;;3.95;2.55;;;;;;;4.62;100.00;96442.28;1224460;75;2916974;-63
2024/01/07 08:41:20;;;;;;;2.90;2.00;;;;;;;5.00;100.00;96435.28;1224169;75;2917511;-65
2024/01/07 08:43:52;;;;;;;3.40;1.70;;;;;;;4.96;100.00;96434.72;1223635;75;2918579;-63
2024/01/07 08:46:25;;;;;;;2.35;1.90;;;;;;;4.74;100.00;96437.03;1222916;75;2944970;-66
2024/01/07 08:49:01;;;;;;;1.80;1.40;;;;;;;4.73;100.00;96441.72;1225311;75;2917343;-62
2024/01/07 08:51:34;;;;;;;1.65;1.30;;;;;;;4.73;100.00;96446.41;1224917;75;2922774;-62
2024/01/07 08:54:07;;;;;;;1.75;1.20;;;;;;;4.78;100.00;96448.47;1224194;75;2918736;-64
2024/01/07 08:56:40;;;;;;;1.55;1.10;;;;;;;4.79;100.00;96453.44;1224926;75;2919951;-68
2024/01/07 08:59:13;;;;;;;2.60;1.30;;;;;;;5.04;100.00;96454.09;1224572;75;2930119;-68
2024/01/07 09:01:45;;;;;;;2.50;1.20;;;;;;;4.90;100.00;96450.91;1223130;75;2973677;-65
2024/01/07 09:04:21;;;;;;;2.95;1.75;;;;;;;4.62;100.00;96450.41;1224571;75;2922032;-65
2024/01/07 09:06:54;;;;;;;2.75;2.05;;;;;;;4.64;100.00;96458.06;1225311;75;2919271;-64
2024/01/07 09:09:27;;;;;;;4.65;2.65;;;;;;;4.64;100.00;96458.06;1223820;75;2929832;-64
2024/01/07 09:12:00;;;;;;;5.50;2.85;;;;;;;4.59;100.00;96459.47;1224624;75;2937559;-64
2024/01/07 09:14:34;;;;;;;4.40;2.50;;;;;;;4.58;100.00;96465.34;1224988;75;2931382;-66
2024/01/07 09:17:06;;;;;;;2.95;2.00;;;;;;;4.49;100.00;96468.88;1224087;75;2920882;-63
2024/01/07 09:19:42;;;;;;;3.60;2.40;;;;;;;4.39;100.00;96470.91;1206392;75;4242102;-65
2024/01/07 09:22:15;;;;;;;3.40;2.10;;;;;;;4.43;100.00;96476.16;1224108;75;2917673;-67
2024/01/07 09:24:47;;;;;;;3.50;2.00;;;;;;;4.57;100.00;96480.88;1225343;75;2920678;-63
2024/01/07 09:27:20;;;;;;;3.45;1.65;;;;;;;4.59;100.00;96481.13;1224975;75;2917932;-65
2024/01/07 09:29:54;;;;;;;2.80;1.55;;;;;;;4.46;100.00;96477.94;1224288;75;2921734;-63
2024/01/07 09:32:27;;;;;;;2.65;1.55;;;;;;;4.39;100.00;96483.72;1224706;75;2922215;-66
2024/01/07 09:35:03;;;;;;;2.95;1.90;;;;;;;4.42;100.00;96486.22;1224810;75;2921105;-66
2024/01/07 09:37:36;;;;;;;6.10;4.05;;;;;;;4.35;100.00;96480.44;1224857;75;2909066;-66
2024/01/07 09:40:11;;;;;;;2.55;1.30;;;;;;;4.40;100.00;96485.19;1225321;75;2912414;-65
2024/01/07 09:42:44;;;;;;;1.80;1.10;;;;;;;4.46;100.00;96486.06;1223434;75;2922129;-64
2024/01/07 09:45:17;;;;;;;1.55;1.10;;;;;;;4.41;100.00;96495.59;1224436;75;2917084;-66
2024/01/07 09:47:50;;;;;;;2.10;1.20;;;;;;;4.40;100.00;96485.97;1224402;75;2926695;-65
2024/01/07 09:50:26;;;;;;;1.65;1.00;;;;;;;4.73;100.00;96484.34;1224505;75;2914361;-66
2024/01/07 09:53:02;;;;;;;1.70;1.45;;;;;;;4.40;100.00;96477.84;1224834;75;2915839;-66
2024/01/07 09:55:43;;;;;;;1.65;1.40;;;;;;;4.42;100.00;96483.53;1223552;75;2920003;-64
2024/01/07 09:58:16;;;;;;;2.15;1.30;;;;;;;4.39;100.00;96478.28;1223489;75;2922243;-64
2024/01/07 10:00:49;;;;;;;2.35;1.40;;;;;;;4.39;100.00;96475.59;1224499;75;2921359;-64
2024/01/07 10:03:22;;;;;;;3.30;1.60;;;;;;;4.39;100.00;96476.34;1224316;75;2916671;-64
2024/01/07 10:05:58;;;;;;;8.70;5.80;;;;;;;4.42;100.00;96485.50;1224653;75;2914080;-65
2024/01/07 10:08:30;;;;;;;6.75;4.50;;;;;;;4.46;100.00;96486.81;1224942;75;2923192;-65
2024/01/07 10:11:04;;;;;;;6.30;3.00;;;;;;;4.55;100.00;96483.31;1225342;75;2923420;-66
2024/01/07 10:13:37;;;;;;;4.50;2.40;;;;;;;4.50;100.00;96481.22;1225829;75;2924730;-64
2024/01/07 10:16:12;;;;;;;2.90;1.90;;;;;;;4.42;100.00;96475.41;1225034;75;2923644;-63
2024/01/07 10:18:45;;;;;;;2.50;1.55;;;;;;;4.52;100.00;96470.66;1224126;75;2941961;-68
2024/01/07 10:21:20;;;;;;;2.25;1.50;;;;;;;4.53;100.00;96476.84;1224434;75;2920339;-66
2024/01/07 10:23:53;;;;;;;2.50;1.60;;;;;;;4.52;100.00;96475.34;1224869;75;2931796;-66
2024/01/07 10:26:26;;;;;;;2.00;1.50;;;;;;;4.54;100.00;96481.78;1224259;75;2917620;-66
2024/01/07 10:28:59;;;;;;;2.20;1.60;;;;;;;4.58;100.00;96482.38;1224311;75;2921743;-65
2024/01/07 10:31:32;;;;;;;2.50;1.60;;;;;;;4.57;100.00;96480.09;1224167;75;2939645;-63
2024/01/07 10:34:05;;;;;;;1.60;1.35;;;;;;;4.76;100.00;96478.75;1224466;75;2952568;-64
2024/01/07 10:36:41;;;;;;;2.75;1.60;;;;;;;4.77;100.00;96477.53;1225015;75;2911786;-63
2024/01/07 10:39:16;;;;;;;2.60;1.90;;;;;;;4.95;100.00;96479.31;1224514;75;2923362;-64
2024/01/07 10:41:52;;;;;;;6.70;4.55;;;;;;;4.99;100.00;96476.44;1224162;75;2904421;-68
2024/01/07 10:44:25;;;;;;;7.60;5.00;;;;;;;5.08;100.00;96476.34;1224140;75;2924802;-63
2024/01/07 10:46:58;;;;;;;8.75;6.30;;;;;;;5.01;100.00;96480.19;1225035;75;2904543;-66
2024/01/07 10:49:32;;;;;;;5.70;4.05;;;;;;;4.99;100.00;96477.19;1224799;75;2921461;-62
2024/01/07 10:52:11;;;;;;;5.25;3.45;;;;;;;5.04;100.00;96467.66;1224367;75;2917458;-68
2024/01/07 10:54:47;;;;;;;3.10;2.15;;;;;;;5.20;100.00;96474.59;1225273;75;2912696;-63
2024/01/07 10:57:31;;;;;;;3.10;1.95;;;;;;;4.97;100.00;96470.72;1223810;75;2913525;-66
2024/01/07 11:00:06;;;;;;;2.80;1.80;;;;;;;5.04;100.00;96473.81;1224065;75;2920360;-63
2024/01/07 11:02:50;;;;;;;9.60;7.05;;;;;;;5.11;100.00;96467.28;1224701;75;2921380;-65
2024/01/07 11:05:34;;;;;;;12.60;8.15;;;;;;;5.09;100.00;96478.59;1223895;75;2923892;-65
2024/01/07 11:08:26;;;;;;;7.35;4.70;;;;;;;5.08;100.00;96471.69;1225145;75;2925939;-65
2024/01/07 11:11:09;;;;;;;4.30;2.70;;;;;;;5.07;100.00;96464.75;1224783;75;2915208;-64
2024/01/07 11:13:43;;;;;;;3.90;2.30;;;;;;;5.19;100.00;96473.81;1224934;75;2924671;-64
2024/01/07 11:16:16;;;;;;;2.95;2.35;;;;;;;5.37;100.00;96475.59;1225362;75;2916932;-63
2024/01/07 11:18:53;;;;;;;2.75;2.00;;;;;;;5.33;100.00;96467.63;1224841;75;2919597;-65
2024/01/07 11:21:27;;;;;;;2.80;2.00;;;;;;;5.30;100.00;96473.25;1224851;75;2928599;-61
2024/01/07 11:24:02;;;;;;;3.00;2.25;;;;;;;5.48;100.00;96467.63;1224538;75;2914516;-64
2024/01/07 11:26:38;;;;;;;2.75;1.65;;;;;;;5.27;100.00;96468.78;1223472;75;2917061;-65
2024/01/07 11:29:13;;;;;;;2.30;1.70;;;;;;;5.58;100.00;96470.22;1224844;75;2918995;-63
2024/01/07 11:31:51;;;;;;;2.75;1.95;;;;;;;5.14;100.00;96471.75;1224630;75;2915580;-63
2024/01/07 11:34:47;;;;;;;4.30;3.35;;;;;;;5.16;100.00;96466.63;1224637;75;2928109;-65
2024/01/07 11:37:20;;;;;;;15.85;10.65;;;;;;;5.33;100.00;96464.16;1224589;75;2927333;-66
2024/01/07 11:39:59;;;;;;;9.15;5.90;;;;;;;5.13;100.00;96467.56;1224854;75;2922176;-68
2024/01/07 11:42:32;;;;;;;7.70;5.15;;;;;;;5.40;100.00;96465.75;1224895;75;2919162;-65
2024/01/07 11:45:05;;;;;;;7.65;5.05;;;;;;;5.36;100.00;96467.91;1224662;75;2935399;-63
2024/01/07 11:47:39;;;;;;;5.30;4.00;;;;;;;5.48;100.00;96472.28;1224561;75;2928015;-63